sensor_id;sensor_type;location;lat;lon;timestamp;P1;durP1;ratioP1;P2;durP2;ratioP2
52618;SDS011;38513;53.234;6.568;2022-08-03T00:01:05;10.37;;;3.13;;
52618;SDS011;38513;53.234;6.568;2022-08-03T00:03:31;10.65;;;3.00;;
52618;SDS011;38513;53.234;6.568;2022-08-03T00:06:00;10.70;;;3.40;;
52618;SDS011;38513;53.234;6.568;2022-08-03T00:08:27;8.50;;;2.80;;
52618;SDS011;38513;53.234;6.568;2022-08-03T00:10:53;10.43;;;3.45;;
52618;SDS011;38513;53.234;6.568;2022-08-03T00:13:19;9.90;;;3.23;;
52618;SDS011;38513;53.234;6.568;2022-08-03T00:15:45;10.73;;;3.83;;
52618;SDS011;38513;53.234;6.568;2022-08-03T00:18:11;11.00;;;4.28;;
52618;SDS011;38513;53.234;6.568;2022-08-03T00:20:37;12.13;;;3.75;;
52618;SDS011;38513;53.234;6.568;2022-08-03T00:23:03;9.70;;;3.20;;
52618;SDS011;38513;53.234;6.568;2022-08-03T00:25:30;11.27;;;3.10;;
52618;SDS011;38513;53.234;6.568;2022-08-03T00:27:56;13.75;;;3.53;;
52618;SDS011;38513;53.234;6.568;2022-08-03T00:30:23;9.73;;;3.30;;
52618;SDS011;38513;53.234;6.568;2022-08-03T00:32:49;10.60;;;3.05;;
52618;SDS011;38513;53.234;6.568;2022-08-03T00:35:15;11.63;;;3.27;;
52618;SDS011;38513;53.234;6.568;2022-08-03T00:37:41;10.45;;;3.70;;
52618;SDS011;38513;53.234;6.568;2022-08-03T00:40:11;9.90;;;3.88;;
52618;SDS011;38513;53.234;6.568;2022-08-03T00:42:51;12.43;;;4.40;;
52618;SDS011;38513;53.234;6.568;2022-08-03T00:45:18;9.55;;;3.50;;
52618;SDS011;38513;53.234;6.568;2022-08-03T00:47:45;11.82;;;3.20;;
52618;SDS011;38513;53.234;6.568;2022-08-03T00:50:11;10.63;;;2.92;;
52618;SDS011;38513;53.234;6.568;2022-08-03T00:52:37;9.60;;;2.70;;
52618;SDS011;38513;53.234;6.568;2022-08-03T00:55:04;11.60;;;2.88;;
52618;SDS011;38513;53.234;6.568;2022-08-03T00:57:30;10.55;;;3.08;;
52618;SDS011;38513;53.234;6.568;2022-08-03T00:59:57;12.90;;;3.25;;
52618;SDS011;38513;53.234;6.568;2022-08-03T01:02:24;11.38;;;3.30;;
52618;SDS011;38513;53.234;6.568;2022-08-03T01:04:50;10.43;;;2.97;;
52618;SDS011;38513;53.234;6.568;2022-08-03T01:07:20;12.32;;;3.50;;
52618;SDS011;38513;53.234;6.568;2022-08-03T01:09:53;10.43;;;3.08;;
52618;SDS011;38513;53.234;6.568;2022-08-03T01:27:25;9.82;;;3.10;;
52618;SDS011;38513;53.234;6.568;2022-08-03T01:30:06;11.15;;;3.00;;
52618;SDS011;38513;53.234;6.568;2022-08-03T01:32:34;8.75;;;2.53;;
52618;SDS011;38513;53.234;6.568;2022-08-03T01:35:09;8.35;;;2.60;;
52618;SDS011;38513;53.234;6.568;2022-08-03T01:37:37;10.13;;;2.95;;
52618;SDS011;38513;53.234;6.568;2022-08-03T01:40:04;9.07;;;3.30;;
52618;SDS011;38513;53.234;6.568;2022-08-03T01:42:31;9.43;;;2.80;;
52618;SDS011;38513;53.234;6.568;2022-08-03T01:45:01;8.75;;;2.78;;
52618;SDS011;38513;53.234;6.568;2022-08-03T01:47:28;8.35;;;2.75;;
52618;SDS011;38513;53.234;6.568;2022-08-03T01:49:55;9.93;;;2.80;;
52618;SDS011;38513;53.234;6.568;2022-08-03T01:52:22;9.30;;;2.45;;
52618;SDS011;38513;53.234;6.568;2022-08-03T01:54:50;8.68;;;2.47;;
52618;SDS011;38513;53.234;6.568;2022-08-03T01:57:16;10.20;;;2.60;;
52618;SDS011;38513;53.234;6.568;2022-08-03T01:59:43;8.30;;;2.30;;
52618;SDS011;38513;53.234;6.568;2022-08-03T02:02:11;9.83;;;2.33;;
52618;SDS011;38513;53.234;6.568;2022-08-03T02:04:37;9.18;;;2.50;;
52618;SDS011;38513;53.234;6.568;2022-08-03T02:07:04;10.15;;;2.28;;
52618;SDS011;38513;53.234;6.568;2022-08-03T02:09:31;9.23;;;2.22;;
52618;SDS011;38513;53.234;6.568;2022-08-03T02:11:57;9.07;;;2.78;;
52618;SDS011;38513;53.234;6.568;2022-08-03T02:14:24;9.43;;;2.40;;
52618;SDS011;38513;53.234;6.568;2022-08-03T02:16:52;9.82;;;2.47;;
52618;SDS011;38513;53.234;6.568;2022-08-03T02:19:18;11.13;;;2.70;;
52618;SDS011;38513;53.234;6.568;2022-08-03T02:21:45;8.50;;;2.45;;
52618;SDS011;38513;53.234;6.568;2022-08-03T02:24:12;8.80;;;2.20;;
52618;SDS011;38513;53.234;6.568;2022-08-03T02:26:38;9.48;;;2.58;;
52618;SDS011;38513;53.234;6.568;2022-08-03T02:29:06;8.35;;;2.22;;
52618;SDS011;38513;53.234;6.568;2022-08-03T02:31:35;9.15;;;2.33;;
52618;SDS011;38513;53.234;6.568;2022-08-03T02:34:03;9.85;;;2.42;;
52618;SDS011;38513;53.234;6.568;2022-08-03T02:36:35;9.48;;;2.67;;
52618;SDS011;38513;53.234;6.568;2022-08-03T02:39:02;8.45;;;2.40;;
52618;SDS011;38513;53.234;6.568;2022-08-03T02:41:36;9.75;;;2.50;;
52618;SDS011;38513;53.234;6.568;2022-08-03T02:44:06;11.35;;;2.42;;
52618;SDS011;38513;53.234;6.568;2022-08-03T02:46:33;9.73;;;2.53;;
52618;SDS011;38513;53.234;6.568;2022-08-03T02:49:01;7.88;;;2.20;;
52618;SDS011;38513;53.234;6.568;2022-08-03T02:51:29;9.52;;;2.17;;
52618;SDS011;38513;53.234;6.568;2022-08-03T02:53:55;9.90;;;2.35;;
52618;SDS011;38513;53.234;6.568;2022-08-03T02:56:23;12.43;;;2.60;;
52618;SDS011;38513;53.234;6.568;2022-08-03T02:58:50;9.32;;;2.50;;
52618;SDS011;38513;53.234;6.568;2022-08-03T03:01:18;9.48;;;2.85;;
52618;SDS011;38513;53.234;6.568;2022-08-03T03:03:44;10.05;;;2.55;;
52618;SDS011;38513;53.234;6.568;2022-08-03T03:06:10;9.05;;;2.45;;
52618;SDS011;38513;53.234;6.568;2022-08-03T03:08:37;8.10;;;2.22;;
52618;SDS011;38513;53.234;6.568;2022-08-03T03:11:04;9.25;;;2.50;;
52618;SDS011;38513;53.234;6.568;2022-08-03T03:13:30;10.48;;;2.75;;
52618;SDS011;38513;53.234;6.568;2022-08-03T03:15:59;10.68;;;2.63;;
52618;SDS011;38513;53.234;6.568;2022-08-03T03:18:29;8.80;;;2.45;;
52618;SDS011;38513;53.234;6.568;2022-08-03T03:20:56;11.30;;;2.67;;
52618;SDS011;38513;53.234;6.568;2022-08-03T03:23:23;10.63;;;2.78;;
52618;SDS011;38513;53.234;6.568;2022-08-03T03:25:50;11.90;;;2.83;;
52618;SDS011;38513;53.234;6.568;2022-08-03T03:28:17;11.65;;;2.60;;
52618;SDS011;38513;53.234;6.568;2022-08-03T03:30:43;9.98;;;2.70;;
52618;SDS011;38513;53.234;6.568;2022-08-03T03:33:09;12.88;;;2.83;;
52618;SDS011;38513;53.234;6.568;2022-08-03T03:35:35;9.75;;;2.60;;
52618;SDS011;38513;53.234;6.568;2022-08-03T03:38:01;9.25;;;2.75;;
52618;SDS011;38513;53.234;6.568;2022-08-03T03:40:27;9.30;;;2.53;;
52618;SDS011;38513;53.234;6.568;2022-08-03T03:42:53;10.63;;;3.00;;
52618;SDS011;38513;53.234;6.568;2022-08-03T03:45:20;9.18;;;2.88;;
52618;SDS011;38513;53.234;6.568;2022-08-03T03:47:46;9.87;;;2.90;;
52618;SDS011;38513;53.234;6.568;2022-08-03T03:50:38;9.87;;;2.70;;
52618;SDS011;38513;53.234;6.568;2022-08-03T03:53:14;11.95;;;2.80;;
52618;SDS011;38513;53.234;6.568;2022-08-03T03:56:05;10.60;;;3.13;;
52618;SDS011;38513;53.234;6.568;2022-08-03T03:58:55;10.02;;;2.95;;
52618;SDS011;38513;53.234;6.568;2022-08-03T04:05:13;11.15;;;3.10;;
52618;SDS011;38513;53.234;6.568;2022-08-03T04:08:36;10.73;;;2.80;;
52618;SDS011;38513;53.234;6.568;2022-08-03T04:18:22;11.38;;;3.28;;
52618;SDS011;38513;53.234;6.568;2022-08-03T04:20:49;10.38;;;3.30;;
52618;SDS011;38513;53.234;6.568;2022-08-03T04:23:16;9.27;;;2.83;;
52618;SDS011;38513;53.234;6.568;2022-08-03T04:25:45;10.27;;;3.37;;
52618;SDS011;38513;53.234;6.568;2022-08-03T04:28:13;10.70;;;3.13;;
52618;SDS011;38513;53.234;6.568;2022-08-03T04:30:40;11.73;;;3.30;;
52618;SDS011;38513;53.234;6.568;2022-08-03T04:33:12;8.85;;;3.10;;
52618;SDS011;38513;53.234;6.568;2022-08-03T04:35:38;11.93;;;3.55;;
52618;SDS011;38513;53.234;6.568;2022-08-03T04:38:05;10.27;;;3.10;;
52618;SDS011;38513;53.234;6.568;2022-08-03T04:40:33;10.23;;;2.80;;
52618;SDS011;38513;53.234;6.568;2022-08-03T04:42:59;10.35;;;3.42;;
52618;SDS011;38513;53.234;6.568;2022-08-03T04:45:26;12.90;;;3.50;;
52618;SDS011;38513;53.234;6.568;2022-08-03T04:47:53;10.93;;;3.30;;
52618;SDS011;38513;53.234;6.568;2022-08-03T04:50:19;10.50;;;3.20;;
52618;SDS011;38513;53.234;6.568;2022-08-03T04:52:46;12.48;;;3.47;;
52618;SDS011;38513;53.234;6.568;2022-08-03T04:55:23;12.77;;;3.58;;
52618;SDS011;38513;53.234;6.568;2022-08-03T04:57:50;13.20;;;3.10;;
52618;SDS011;38513;53.234;6.568;2022-08-03T05:00:16;12.30;;;3.42;;
52618;SDS011;38513;53.234;6.568;2022-08-03T05:02:42;11.55;;;3.45;;
52618;SDS011;38513;53.234;6.568;2022-08-03T05:05:08;10.65;;;3.25;;
52618;SDS011;38513;53.234;6.568;2022-08-03T05:07:36;13.02;;;3.28;;
52618;SDS011;38513;53.234;6.568;2022-08-03T05:10:05;9.85;;;3.28;;
52618;SDS011;38513;53.234;6.568;2022-08-03T05:12:32;11.02;;;3.50;;
52618;SDS011;38513;53.234;6.568;2022-08-03T05:15:02;10.60;;;3.40;;
52618;SDS011;38513;53.234;6.568;2022-08-03T05:17:28;12.67;;;3.77;;
52618;SDS011;38513;53.234;6.568;2022-08-03T05:19:54;14.05;;;3.63;;
52618;SDS011;38513;53.234;6.568;2022-08-03T05:22:20;12.43;;;3.72;;
52618;SDS011;38513;53.234;6.568;2022-08-03T05:24:47;13.55;;;3.40;;
52618;SDS011;38513;53.234;6.568;2022-08-03T05:27:13;14.02;;;3.40;;
52618;SDS011;38513;53.234;6.568;2022-08-03T05:29:47;13.75;;;3.65;;
52618;SDS011;38513;53.234;6.568;2022-08-03T05:32:13;11.50;;;3.17;;
52618;SDS011;38513;53.234;6.568;2022-08-03T05:34:39;10.30;;;3.30;;
52618;SDS011;38513;53.234;6.568;2022-08-03T05:37:06;12.13;;;3.60;;
52618;SDS011;38513;53.234;6.568;2022-08-03T05:39:32;11.65;;;3.20;;
52618;SDS011;38513;53.234;6.568;2022-08-03T05:41:59;12.13;;;3.17;;
52618;SDS011;38513;53.234;6.568;2022-08-03T05:44:25;13.48;;;3.60;;
52618;SDS011;38513;53.234;6.568;2022-08-03T05:46:51;12.25;;;3.33;;
52618;SDS011;38513;53.234;6.568;2022-08-03T05:49:18;11.07;;;3.30;;
52618;SDS011;38513;53.234;6.568;2022-08-03T05:51:44;14.80;;;3.85;;
52618;SDS011;38513;53.234;6.568;2022-08-03T05:54:10;12.68;;;3.22;;
52618;SDS011;38513;53.234;6.568;2022-08-03T05:56:36;10.77;;;3.35;;
52618;SDS011;38513;53.234;6.568;2022-08-03T05:59:05;11.18;;;4.30;;
52618;SDS011;38513;53.234;6.568;2022-08-03T06:01:31;11.85;;;3.40;;
52618;SDS011;38513;53.234;6.568;2022-08-03T06:03:57;12.85;;;5.22;;
52618;SDS011;38513;53.234;6.568;2022-08-03T06:06:27;11.98;;;3.50;;
52618;SDS011;38513;53.234;6.568;2022-08-03T06:08:53;12.68;;;3.72;;
52618;SDS011;38513;53.234;6.568;2022-08-03T06:11:19;12.10;;;3.80;;
52618;SDS011;38513;53.234;6.568;2022-08-03T06:13:45;12.93;;;3.73;;
52618;SDS011;38513;53.234;6.568;2022-08-03T06:16:11;12.82;;;4.10;;
52618;SDS011;38513;53.234;6.568;2022-08-03T06:18:39;11.27;;;3.72;;
52618;SDS011;38513;53.234;6.568;2022-08-03T06:21:05;12.68;;;3.67;;
52618;SDS011;38513;53.234;6.568;2022-08-03T06:23:32;11.75;;;3.42;;
52618;SDS011;38513;53.234;6.568;2022-08-03T06:26:01;14.68;;;4.10;;
52618;SDS011;38513;53.234;6.568;2022-08-03T06:28:27;14.47;;;3.70;;
52618;SDS011;38513;53.234;6.568;2022-08-03T06:30:53;13.82;;;3.83;;
52618;SDS011;38513;53.234;6.568;2022-08-03T06:33:19;15.48;;;4.28;;
52618;SDS011;38513;53.234;6.568;2022-08-03T06:35:45;14.65;;;3.83;;
52618;SDS011;38513;53.234;6.568;2022-08-03T06:38:11;13.93;;;4.10;;
52618;SDS011;38513;53.234;6.568;2022-08-03T06:40:37;10.98;;;3.70;;
52618;SDS011;38513;53.234;6.568;2022-08-03T06:43:06;13.20;;;3.70;;
52618;SDS011;38513;53.234;6.568;2022-08-03T06:45:32;14.77;;;4.10;;
52618;SDS011;38513;53.234;6.568;2022-08-03T06:48:05;14.00;;;3.80;;
52618;SDS011;38513;53.234;6.568;2022-08-03T06:50:32;13.00;;;3.58;;
52618;SDS011;38513;53.234;6.568;2022-08-03T06:52:59;14.48;;;4.10;;
52618;SDS011;38513;53.234;6.568;2022-08-03T06:55:25;12.82;;;3.60;;
52618;SDS011;38513;53.234;6.568;2022-08-03T06:57:51;12.17;;;4.00;;
52618;SDS011;38513;53.234;6.568;2022-08-03T07:00:17;11.77;;;3.85;;
52618;SDS011;38513;53.234;6.568;2022-08-03T07:02:44;15.05;;;4.00;;
52618;SDS011;38513;53.234;6.568;2022-08-03T07:05:10;13.75;;;4.50;;
52618;SDS011;38513;53.234;6.568;2022-08-03T07:07:37;18.42;;;3.90;;
52618;SDS011;38513;53.234;6.568;2022-08-03T07:10:03;14.95;;;3.70;;
52618;SDS011;38513;53.234;6.568;2022-08-03T07:12:30;15.02;;;4.30;;
52618;SDS011;38513;53.234;6.568;2022-08-03T07:14:56;13.50;;;4.20;;
52618;SDS011;38513;53.234;6.568;2022-08-03T07:17:23;12.50;;;4.20;;
52618;SDS011;38513;53.234;6.568;2022-08-03T07:19:49;11.38;;;3.10;;
52618;SDS011;38513;53.234;6.568;2022-08-03T07:22:15;14.57;;;4.22;;
52618;SDS011;38513;53.234;6.568;2022-08-03T07:24:41;14.55;;;3.92;;
52618;SDS011;38513;53.234;6.568;2022-08-03T07:27:08;13.70;;;3.75;;
52618;SDS011;38513;53.234;6.568;2022-08-03T07:29:34;14.63;;;4.43;;
52618;SDS011;38513;53.234;6.568;2022-08-03T07:32:03;11.40;;;3.50;;
52618;SDS011;38513;53.234;6.568;2022-08-03T07:34:30;14.40;;;3.83;;
52618;SDS011;38513;53.234;6.568;2022-08-03T07:36:58;12.70;;;3.58;;
52618;SDS011;38513;53.234;6.568;2022-08-03T07:39:24;12.27;;;3.30;;
52618;SDS011;38513;53.234;6.568;2022-08-03T07:41:51;12.65;;;3.55;;
52618;SDS011;38513;53.234;6.568;2022-08-03T07:44:17;11.60;;;3.70;;
52618;SDS011;38513;53.234;6.568;2022-08-03T07:46:43;11.85;;;2.83;;
52618;SDS011;38513;53.234;6.568;2022-08-03T07:49:10;10.63;;;3.28;;
52618;SDS011;38513;53.234;6.568;2022-08-03T07:51:36;11.70;;;3.22;;
52618;SDS011;38513;53.234;6.568;2022-08-03T07:54:02;11.80;;;2.97;;
52618;SDS011;38513;53.234;6.568;2022-08-03T07:56:28;12.88;;;3.10;;
52618;SDS011;38513;53.234;6.568;2022-08-03T07:58:55;12.57;;;3.35;;
52618;SDS011;38513;53.234;6.568;2022-08-03T08:01:21;10.50;;;3.30;;
52618;SDS011;38513;53.234;6.568;2022-08-03T08:03:48;11.77;;;3.23;;
52618;SDS011;38513;53.234;6.568;2022-08-03T08:06:14;10.57;;;3.95;;
52618;SDS011;38513;53.234;6.568;2022-08-03T08:08:41;11.68;;;3.53;;
52618;SDS011;38513;53.234;6.568;2022-08-03T08:11:07;10.55;;;3.28;;
52618;SDS011;38513;53.234;6.568;2022-08-03T08:13:33;13.07;;;3.58;;
52618;SDS011;38513;53.234;6.568;2022-08-03T08:16:01;11.60;;;3.30;;
52618;SDS011;38513;53.234;6.568;2022-08-03T08:18:27;12.50;;;3.25;;
52618;SDS011;38513;53.234;6.568;2022-08-03T08:20:54;11.70;;;3.72;;
52618;SDS011;38513;53.234;6.568;2022-08-03T08:23:20;12.65;;;3.60;;
52618;SDS011;38513;53.234;6.568;2022-08-03T08:25:49;12.27;;;3.40;;
52618;SDS011;38513;53.234;6.568;2022-08-03T08:28:16;11.90;;;3.70;;
52618;SDS011;38513;53.234;6.568;2022-08-03T08:30:44;11.93;;;3.50;;
52618;SDS011;38513;53.234;6.568;2022-08-03T08:33:10;13.02;;;3.92;;
52618;SDS011;38513;53.234;6.568;2022-08-03T08:35:36;11.60;;;3.60;;
52618;SDS011;38513;53.234;6.568;2022-08-03T08:38:02;10.48;;;3.60;;
52618;SDS011;38513;53.234;6.568;2022-08-03T08:40:28;12.40;;;3.87;;
52618;SDS011;38513;53.234;6.568;2022-08-03T08:42:55;13.52;;;4.07;;
52618;SDS011;38513;53.234;6.568;2022-08-03T08:45:21;10.90;;;3.80;;
52618;SDS011;38513;53.234;6.568;2022-08-03T08:47:47;13.10;;;3.67;;
52618;SDS011;38513;53.234;6.568;2022-08-03T08:50:18;10.90;;;3.30;;
52618;SDS011;38513;53.234;6.568;2022-08-03T08:52:45;12.07;;;3.67;;
52618;SDS011;38513;53.234;6.568;2022-08-03T08:55:17;12.23;;;3.80;;
52618;SDS011;38513;53.234;6.568;2022-08-03T08:57:58;11.35;;;3.35;;
52618;SDS011;38513;53.234;6.568;2022-08-03T09:00:26;11.32;;;3.53;;
52618;SDS011;38513;53.234;6.568;2022-08-03T09:02:52;10.18;;;3.67;;
52618;SDS011;38513;53.234;6.568;2022-08-03T09:05:18;12.63;;;3.88;;
52618;SDS011;38513;53.234;6.568;2022-08-03T09:07:45;10.95;;;3.60;;
52618;SDS011;38513;53.234;6.568;2022-08-03T09:10:13;11.82;;;3.58;;
52618;SDS011;38513;53.234;6.568;2022-08-03T09:12:50;10.17;;;3.10;;
52618;SDS011;38513;53.234;6.568;2022-08-03T09:15:23;12.93;;;3.33;;
52618;SDS011;38513;53.234;6.568;2022-08-03T09:17:53;12.73;;;4.10;;
52618;SDS011;38513;53.234;6.568;2022-08-03T09:20:20;10.57;;;3.65;;
52618;SDS011;38513;53.234;6.568;2022-08-03T09:23:06;11.10;;;3.42;;
52618;SDS011;38513;53.234;6.568;2022-08-03T09:25:36;11.80;;;3.30;;
52618;SDS011;38513;53.234;6.568;2022-08-03T09:28:04;11.15;;;3.45;;
52618;SDS011;38513;53.234;6.568;2022-08-03T09:30:30;13.23;;;3.23;;
52618;SDS011;38513;53.234;6.568;2022-08-03T09:33:04;13.07;;;4.13;;
52618;SDS011;38513;53.234;6.568;2022-08-03T09:35:30;15.02;;;3.50;;
52618;SDS011;38513;53.234;6.568;2022-08-03T09:38:16;11.02;;;3.38;;
52618;SDS011;38513;53.234;6.568;2022-08-03T09:40:43;11.63;;;3.70;;
52618;SDS011;38513;53.234;6.568;2022-08-03T09:43:09;13.87;;;4.03;;
52618;SDS011;38513;53.234;6.568;2022-08-03T09:45:36;12.20;;;3.40;;
52618;SDS011;38513;53.234;6.568;2022-08-03T09:48:19;13.15;;;3.90;;
52618;SDS011;38513;53.234;6.568;2022-08-03T09:50:52;10.95;;;4.22;;
52618;SDS011;38513;53.234;6.568;2022-08-03T09:53:18;13.43;;;3.90;;
52618;SDS011;38513;53.234;6.568;2022-08-03T09:55:58;9.98;;;3.25;;
52618;SDS011;38513;53.234;6.568;2022-08-03T09:58:24;11.68;;;3.90;;
52618;SDS011;38513;53.234;6.568;2022-08-03T10:00:52;10.63;;;3.53;;
52618;SDS011;38513;53.234;6.568;2022-08-03T10:03:18;12.02;;;3.83;;
52618;SDS011;38513;53.234;6.568;2022-08-03T10:05:44;13.77;;;4.45;;
52618;SDS011;38513;53.234;6.568;2022-08-03T10:08:15;13.85;;;3.40;;
52618;SDS011;38513;53.234;6.568;2022-08-03T10:10:42;14.18;;;4.45;;
52618;SDS011;38513;53.234;6.568;2022-08-03T10:13:09;12.55;;;4.30;;
52618;SDS011;38513;53.234;6.568;2022-08-03T10:15:37;11.30;;;4.30;;
52618;SDS011;38513;53.234;6.568;2022-08-03T10:18:04;12.02;;;4.18;;
52618;SDS011;38513;53.234;6.568;2022-08-03T10:20:31;12.10;;;4.07;;
52618;SDS011;38513;53.234;6.568;2022-08-03T10:23:01;12.47;;;4.10;;
52618;SDS011;38513;53.234;6.568;2022-08-03T10:25:28;11.73;;;4.00;;
52618;SDS011;38513;53.234;6.568;2022-08-03T10:27:55;13.57;;;3.65;;
52618;SDS011;38513;53.234;6.568;2022-08-03T10:30:21;12.02;;;4.30;;
52618;SDS011;38513;53.234;6.568;2022-08-03T10:35:15;14.00;;;4.10;;
52618;SDS011;38513;53.234;6.568;2022-08-03T10:38:11;12.60;;;4.32;;
52618;SDS011;38513;53.234;6.568;2022-08-03T10:40:30;11.47;;;4.10;;
52618;SDS011;38513;53.234;6.568;2022-08-03T10:43:02;17.00;;;3.85;;
52618;SDS011;38513;53.234;6.568;2022-08-03T10:45:31;15.95;;;4.78;;
52618;SDS011;38513;53.234;6.568;2022-08-03T10:47:58;12.00;;;4.22;;
52618;SDS011;38513;53.234;6.568;2022-08-03T10:50:25;13.45;;;4.45;;
52618;SDS011;38513;53.234;6.568;2022-08-03T10:52:56;15.18;;;4.50;;
52618;SDS011;38513;53.234;6.568;2022-08-03T11:01:02;15.07;;;5.00;;
52618;SDS011;38513;53.234;6.568;2022-08-03T11:03:28;14.48;;;4.80;;
52618;SDS011;38513;53.234;6.568;2022-08-03T11:06:13;13.60;;;4.35;;
52618;SDS011;38513;53.234;6.568;2022-08-03T11:08:41;15.52;;;4.65;;
52618;SDS011;38513;53.234;6.568;2022-08-03T11:14:17;15.15;;;4.90;;
52618;SDS011;38513;53.234;6.568;2022-08-03T11:16:39;17.33;;;4.72;;
52618;SDS011;38513;53.234;6.568;2022-08-03T11:19:10;13.02;;;4.78;;
52618;SDS011;38513;53.234;6.568;2022-08-03T11:35:11;18.63;;;5.00;;
52618;SDS011;38513;53.234;6.568;2022-08-03T11:45:57;16.92;;;5.60;;
52618;SDS011;38513;53.234;6.568;2022-08-03T11:48:25;16.02;;;5.63;;
52618;SDS011;38513;53.234;6.568;2022-08-03T11:50:52;17.10;;;5.73;;
52618;SDS011;38513;53.234;6.568;2022-08-03T11:53:18;17.85;;;5.57;;
52618;SDS011;38513;53.234;6.568;2022-08-03T11:55:44;18.15;;;5.53;;
52618;SDS011;38513;53.234;6.568;2022-08-03T11:58:19;19.42;;;6.35;;
52618;SDS011;38513;53.234;6.568;2022-08-03T12:00:49;16.35;;;5.82;;
52618;SDS011;38513;53.234;6.568;2022-08-03T12:03:16;18.00;;;5.63;;
52618;SDS011;38513;53.234;6.568;2022-08-03T12:05:52;17.55;;;6.72;;
52618;SDS011;38513;53.234;6.568;2022-08-03T12:10:51;16.83;;;5.93;;
52618;SDS011;38513;53.234;6.568;2022-08-03T12:13:18;17.98;;;5.88;;
52618;SDS011;38513;53.234;6.568;2022-08-03T12:15:49;15.30;;;5.23;;
52618;SDS011;38513;53.234;6.568;2022-08-03T12:18:16;16.13;;;5.30;;
52618;SDS011;38513;53.234;6.568;2022-08-03T12:20:42;15.80;;;5.28;;
52618;SDS011;38513;53.234;6.568;2022-08-03T12:23:09;17.75;;;5.47;;
52618;SDS011;38513;53.234;6.568;2022-08-03T12:25:36;17.80;;;5.90;;
52618;SDS011;38513;53.234;6.568;2022-08-03T12:28:12;17.65;;;5.35;;
52618;SDS011;38513;53.234;6.568;2022-08-03T12:30:41;16.43;;;5.10;;
52618;SDS011;38513;53.234;6.568;2022-08-03T12:33:15;16.98;;;5.30;;
52618;SDS011;38513;53.234;6.568;2022-08-03T12:35:44;15.55;;;5.22;;
52618;SDS011;38513;53.234;6.568;2022-08-03T12:38:10;21.42;;;6.30;;
52618;SDS011;38513;53.234;6.568;2022-08-03T12:40:37;18.80;;;5.50;;
52618;SDS011;38513;53.234;6.568;2022-08-03T12:43:10;15.07;;;4.80;;
52618;SDS011;38513;53.234;6.568;2022-08-03T12:45:36;20.30;;;5.32;;
52618;SDS011;38513;53.234;6.568;2022-08-03T12:48:02;17.40;;;5.80;;
52618;SDS011;38513;53.234;6.568;2022-08-03T12:50:33;17.93;;;5.50;;
52618;SDS011;38513;53.234;6.568;2022-08-03T12:53:00;19.70;;;5.80;;
52618;SDS011;38513;53.234;6.568;2022-08-03T12:55:27;15.70;;;5.38;;
52618;SDS011;38513;53.234;6.568;2022-08-03T12:58:03;21.27;;;6.07;;
52618;SDS011;38513;53.234;6.568;2022-08-03T13:00:29;20.50;;;5.70;;
52618;SDS011;38513;53.234;6.568;2022-08-03T13:03:02;16.20;;;5.63;;
52618;SDS011;38513;53.234;6.568;2022-08-03T13:05:30;18.40;;;5.25;;
52618;SDS011;38513;53.234;6.568;2022-08-03T13:07:56;18.10;;;6.20;;
52618;SDS011;38513;53.234;6.568;2022-08-03T13:10:26;20.67;;;6.35;;
52618;SDS011;38513;53.234;6.568;2022-08-03T13:12:53;18.80;;;6.40;;
52618;SDS011;38513;53.234;6.568;2022-08-03T13:15:22;20.27;;;6.22;;
52618;SDS011;38513;53.234;6.568;2022-08-03T13:17:50;16.60;;;5.30;;
52618;SDS011;38513;53.234;6.568;2022-08-03T13:20:17;18.58;;;6.00;;
52618;SDS011;38513;53.234;6.568;2022-08-03T13:22:45;15.20;;;6.05;;
52618;SDS011;38513;53.234;6.568;2022-08-03T13:25:11;18.63;;;6.20;;
52618;SDS011;38513;53.234;6.568;2022-08-03T13:27:38;18.15;;;5.60;;
52618;SDS011;38513;53.234;6.568;2022-08-03T13:30:04;15.32;;;5.25;;
52618;SDS011;38513;53.234;6.568;2022-08-03T13:32:31;19.20;;;5.80;;
52618;SDS011;38513;53.234;6.568;2022-08-03T13:34:57;15.13;;;5.32;;
52618;SDS011;38513;53.234;6.568;2022-08-03T13:37:23;17.42;;;5.63;;
52618;SDS011;38513;53.234;6.568;2022-08-03T13:39:49;15.98;;;5.30;;
52618;SDS011;38513;53.234;6.568;2022-08-03T13:42:15;20.67;;;6.30;;
52618;SDS011;38513;53.234;6.568;2022-08-03T13:44:41;15.80;;;5.00;;
52618;SDS011;38513;53.234;6.568;2022-08-03T13:47:08;15.35;;;4.60;;
52618;SDS011;38513;53.234;6.568;2022-08-03T13:49:34;17.58;;;5.07;;
52618;SDS011;38513;53.234;6.568;2022-08-03T13:52:00;18.40;;;5.70;;
52618;SDS011;38513;53.234;6.568;2022-08-03T13:54:26;15.35;;;4.32;;
52618;SDS011;38513;53.234;6.568;2022-08-03T13:56:52;15.87;;;4.60;;
52618;SDS011;38513;53.234;6.568;2022-08-03T13:59:19;13.95;;;4.95;;
52618;SDS011;38513;53.234;6.568;2022-08-03T14:01:46;15.43;;;4.43;;
52618;SDS011;38513;53.234;6.568;2022-08-03T14:04:12;15.13;;;4.45;;
52618;SDS011;38513;53.234;6.568;2022-08-03T14:06:38;14.98;;;4.30;;
52618;SDS011;38513;53.234;6.568;2022-08-03T14:09:04;12.90;;;4.03;;
52618;SDS011;38513;53.234;6.568;2022-08-03T14:11:30;15.70;;;4.43;;
52618;SDS011;38513;53.234;6.568;2022-08-03T14:13:56;13.10;;;4.50;;
52618;SDS011;38513;53.234;6.568;2022-08-03T14:16:22;14.82;;;4.63;;
52618;SDS011;38513;53.234;6.568;2022-08-03T14:18:48;14.00;;;4.13;;
52618;SDS011;38513;53.234;6.568;2022-08-03T14:21:14;15.75;;;6.40;;
52618;SDS011;38513;53.234;6.568;2022-08-03T14:23:40;16.88;;;6.65;;
52618;SDS011;38513;53.234;6.568;2022-08-03T14:26:07;13.82;;;5.45;;
52618;SDS011;38513;53.234;6.568;2022-08-03T14:28:33;17.93;;;5.60;;
52618;SDS011;38513;53.234;6.568;2022-08-03T14:31:01;16.58;;;5.45;;
52618;SDS011;38513;53.234;6.568;2022-08-03T14:33:28;13.02;;;4.85;;
52618;SDS011;38513;53.234;6.568;2022-08-03T14:35:54;13.93;;;5.13;;
52618;SDS011;38513;53.234;6.568;2022-08-03T14:38:21;14.23;;;5.05;;
52618;SDS011;38513;53.234;6.568;2022-08-03T14:40:50;15.57;;;5.00;;
52618;SDS011;38513;53.234;6.568;2022-08-03T14:43:17;15.00;;;4.95;;
52618;SDS011;38513;53.234;6.568;2022-08-03T14:45:50;18.00;;;5.57;;
52618;SDS011;38513;53.234;6.568;2022-08-03T14:48:18;16.30;;;5.82;;
52618;SDS011;38513;53.234;6.568;2022-08-03T14:50:46;13.30;;;5.13;;
52618;SDS011;38513;53.234;6.568;2022-08-03T14:53:13;14.77;;;5.47;;
52618;SDS011;38513;53.234;6.568;2022-08-03T14:55:39;14.30;;;4.95;;
52618;SDS011;38513;53.234;6.568;2022-08-03T14:58:05;17.25;;;5.10;;
52618;SDS011;38513;53.234;6.568;2022-08-03T15:00:32;13.15;;;5.10;;
52618;SDS011;38513;53.234;6.568;2022-08-03T15:03:01;12.18;;;5.07;;
52618;SDS011;38513;53.234;6.568;2022-08-03T15:05:27;11.25;;;4.03;;
52618;SDS011;38513;53.234;6.568;2022-08-03T15:07:53;11.95;;;4.30;;
52618;SDS011;38513;53.234;6.568;2022-08-03T15:10:19;13.93;;;4.05;;
52618;SDS011;38513;53.234;6.568;2022-08-03T15:12:45;11.57;;;3.70;;
52618;SDS011;38513;53.234;6.568;2022-08-03T15:15:15;13.65;;;4.82;;
52618;SDS011;38513;53.234;6.568;2022-08-03T15:17:41;11.35;;;3.97;;
52618;SDS011;38513;53.234;6.568;2022-08-03T15:20:07;10.55;;;4.40;;
52618;SDS011;38513;53.234;6.568;2022-08-03T15:22:33;10.98;;;4.05;;
52618;SDS011;38513;53.234;6.568;2022-08-03T15:25:00;13.25;;;4.57;;
52618;SDS011;38513;53.234;6.568;2022-08-03T15:27:26;13.80;;;4.63;;
52618;SDS011;38513;53.234;6.568;2022-08-03T15:29:53;10.43;;;4.20;;
52618;SDS011;38513;53.234;6.568;2022-08-03T15:32:19;11.98;;;4.13;;
52618;SDS011;38513;53.234;6.568;2022-08-03T15:34:45;12.25;;;3.92;;
52618;SDS011;38513;53.234;6.568;2022-08-03T15:37:12;12.32;;;4.20;;
52618;SDS011;38513;53.234;6.568;2022-08-03T15:39:38;10.65;;;3.92;;
52618;SDS011;38513;53.234;6.568;2022-08-03T15:42:04;11.98;;;4.03;;